Time;durP1;ratioP1;P1;durP2;ratioP2;P2;SDS_P1;SDS_P2;PMS_P1;PMS_P2;Temp;Humidity;BMP_temperature;BMP_pressure;BME280_temperature;BME280_humidity;BME280_pressure;Samples;Min_cycle;Max_cycle;Signal;HPM_P1;HPM_P2
2023/12/20 00:00:55;;;;;;;14.20;2.72;;;4.90;99.90;;;;;;5055377;28;20549;-72
2023/12/20 00:03:21;;;;;;;12.00;2.10;;;4.90;99.90;;;;;;5062322;28;20048;-72
2023/12/20 00:05:47;;;;;;;13.65;2.00;;;5.00;99.90;;;;;;5068379;28;20036;-72
2023/12/20 00:08:13;;;;;;;12.82;2.25;;;5.60;99.90;;;;;;5070985;28;20131;-72
2023/12/20 00:10:39;;;;;;;15.90;2.22;;;5.20;99.90;;;;;;5069938;28;20119;-71
2023/12/20 00:13:04;;;;;;;13.63;2.10;;;5.40;99.90;;;;;;5057660;28;20484;-70
2023/12/20 00:15:30;;;;;;;10.18;1.80;;;4.90;99.90;;;;;;5055303;28;20032;-73
2023/12/20 00:17:55;;;;;;;11.82;1.98;;;5.40;99.90;;;;;;5070048;28;20499;-72
2023/12/20 00:20:21;;;;;;;16.33;3.25;;;4.90;99.90;;;;;;5067700;28;20126;-73
2023/12/20 00:22:47;;;;;;;5.60;1.38;;;5.00;99.90;;;;;;5075106;28;20075;-71
2023/12/20 00:25:12;;;;;;;9.88;2.20;;;4.90;99.90;;;;;;5060914;28;20046;-73
2023/12/20 00:27:38;;;;;;;9.55;1.85;;;5.00;99.90;;;;;;5059859;28;20044;-71
2023/12/20 00:30:04;;;;;;;14.02;1.90;;;5.00;99.90;;;;;;5066241;28;20059;-72
2023/12/20 00:32:30;;;;;;;15.13;2.50;;;5.30;99.90;;;;;;5061815;28;20131;-73
2023/12/20 00:34:55;;;;;;;11.75;2.05;;;5.30;99.90;;;;;;5038986;28;20651;-70
2023/12/20 00:37:21;;;;;;;12.70;2.55;;;5.20;99.90;;;;;;5053410;28;20040;-71
2023/12/20 00:39:47;;;;;;;13.02;1.77;;;4.90;99.90;;;;;;5053945;28;20036;-71
2023/12/20 00:42:13;;;;;;;13.82;2.03;;;4.70;99.90;;;;;;5062201;28;20066;-72
2023/12/20 00:44:38;;;;;;;15.95;2.22;;;4.80;99.90;;;;;;5058687;28;20413;-72
2023/12/20 00:47:04;;;;;;;13.23;2.05;;;4.90;99.90;;;;;;5067200;28;20126;-72
2023/12/20 00:49:30;;;;;;;10.15;1.50;;;5.20;99.90;;;;;;5038644;28;20040;-71
2023/12/20 00:51:55;;;;;;;12.02;2.35;;;4.80;99.90;;;;;;5064790;28;20082;-72
2023/12/20 00:54:21;;;;;;;12.43;2.20;;;4.80;99.90;;;;;;5071131;28;20525;-69
2023/12/20 00:56:46;;;;;;;11.20;2.15;;;5.20;99.90;;;;;;5081560;28;20040;-73
2023/12/20 00:59:12;;;;;;;9.65;2.35;;;5.00;99.90;;;;;;5059711;28;20051;-70
2023/12/20 01:01:38;;;;;;;10.70;2.28;;;4.90;99.90;;;;;;5037088;28;20033;-69
2023/12/20 01:04:04;;;;;;;11.50;2.25;;;5.00;99.90;;;;;;5055253;28;20302;-75
2023/12/20 01:06:29;;;;;;;21.48;2.53;;;5.30;99.90;;;;;;5049493;28;20059;-70
2023/12/20 01:08:55;;;;;;;13.70;2.03;;;5.30;99.90;;;;;;5069647;28;20059;-70
2023/12/20 01:11:20;;;;;;;13.77;2.17;;;5.00;99.90;;;;;;5074530;28;20515;-73
2023/12/20 01:13:46;;;;;;;18.35;2.13;;;5.10;99.90;;;;;;5052196;28;20036;-70
2023/12/20 01:16:12;;;;;;;13.90;2.08;;;5.00;99.90;;;;;;5054569;28;20481;-71
2023/12/20 01:18:38;;;;;;;13.35;2.40;;;5.30;99.90;;;;;;5056463;28;20032;-72
2023/12/20 01:21:04;;;;;;;13.60;2.50;;;5.00;99.90;;;;;;5049670;28;20036;-69
2023/12/20 01:23:30;;;;;;;15.75;4.03;;;5.30;99.90;;;;;;5040504;28;20067;-71
2023/12/20 01:25:56;;;;;;;15.48;2.75;;;5.00;99.90;;;;;;5059905;28;20089;-74
2023/12/20 01:28:22;;;;;;;15.80;4.28;;;5.00;99.90;;;;;;5054816;28;20048;-71
2023/12/20 01:30:48;;;;;;;13.70;2.50;;;5.30;99.90;;;;;;5032355;28;20496;-70
2023/12/20 01:33:13;;;;;;;12.85;2.60;;;5.30;99.90;;;;;;5059313;28;20764;-72
2023/12/20 01:35:39;;;;;;;14.25;4.05;;;5.30;99.90;;;;;;5039336;28;20064;-72
2023/12/20 01:38:04;;;;;;;18.98;2.53;;;5.20;99.90;;;;;;5050845;28;20051;-70
2023/12/20 01:40:30;;;;;;;11.93;2.50;;;5.10;99.90;;;;;;5050000;28;20029;-71
2023/12/20 01:43:07;;;;;;;14.23;2.40;;;5.20;99.90;;;;;;5065593;28;20044;-71
2023/12/20 01:45:32;;;;;;;12.65;2.13;;;4.90;99.90;;;;;;5077324;28;20548;-70
2023/12/20 01:47:59;;;;;;;17.92;2.70;;;5.10;99.90;;;;;;5049959;28;20047;-72
2023/12/20 01:50:24;;;;;;;11.20;2.40;;;4.90;99.90;;;;;;5057235;28;20045;-70
2023/12/20 01:52:52;;;;;;;9.98;2.85;;;5.10;99.90;;;;;;5049134;28;20045;-70
2023/12/20 01:55:19;;;;;;;18.88;2.55;;;4.90;99.90;;;;;;5059083;28;20044;-71
2023/12/20 01:57:47;;;;;;;13.95;2.60;;;5.10;99.90;;;;;;5070411;28;20043;-71
2023/12/20 02:00:14;;;;;;;12.68;2.80;;;5.20;99.90;;;;;;5067767;28;20033;-71
2023/12/20 02:02:40;;;;;;;16.60;3.05;;;5.00;99.90;;;;;;5045554;28;20468;-70
2023/12/20 02:05:07;;;;;;;21.30;3.47;;;5.00;99.90;;;;;;5049591;28;20105;-71
2023/12/20 02:07:34;;;;;;;16.63;2.60;;;5.00;99.90;;;;;;5049835;28;20060;-71
2023/12/20 02:10:06;;;;;;;16.35;2.47;;;5.00;99.90;;;;;;5048883;28;20048;-70
2023/12/20 02:12:31;;;;;;;11.70;2.83;;;5.20;99.90;;;;;;5050822;28;20384;-73
2023/12/20 02:14:57;;;;;;;17.27;3.15;;;5.10;99.90;;;;;;5032624;28;20029;-71
2023/12/20 02:17:23;;;;;;;18.05;2.42;;;5.30;99.90;;;;;;5034485;28;20037;-71
2023/12/20 02:19:49;;;;;;;16.10;2.80;;;5.00;99.90;;;;;;5038830;28;20044;-70
2023/12/20 02:22:15;;;;;;;21.77;3.58;;;4.90;99.90;;;;;;5063019;28;20501;-69
2023/12/20 02:24:41;;;;;;;18.70;2.47;;;5.10;99.90;;;;;;5052896;28;20127;-68
2023/12/20 02:27:07;;;;;;;13.15;2.33;;;5.00;99.90;;;;;;5055154;28;20032;-72
2023/12/20 02:29:34;;;;;;;15.38;2.53;;;5.10;99.90;;;;;;5056693;28;20097;-70
2023/12/20 02:31:59;;;;;;;17.27;3.00;;;5.10;99.90;;;;;;5065913;28;20051;-70
2023/12/20 02:34:25;;;;;;;13.02;2.45;;;5.30;99.90;;;;;;5056760;28;20100;-70
2023/12/20 02:36:51;;;;;;;13.82;2.92;;;5.10;99.90;;;;;;5053741;28;20098;-70
2023/12/20 02:39:17;;;;;;;20.48;4.00;;;5.10;99.90;;;;;;5059791;28;20475;-69
2023/12/20 02:41:42;;;;;;;19.52;3.08;;;5.10;99.90;;;;;;5056619;28;20126;-70
2023/12/20 02:44:08;;;;;;;17.85;2.95;;;5.10;99.90;;;;;;5074201;28;20044;-70
2023/12/20 02:46:34;;;;;;;20.33;2.97;;;5.30;99.90;;;;;;5060661;28;20051;-71
2023/12/20 02:48:59;;;;;;;18.90;3.67;;;5.30;99.90;;;;;;5071991;28;20043;-71
2023/12/20 02:51:25;;;;;;;16.23;2.63;;;5.20;99.90;;;;;;5059076;28;20123;-68
2023/12/20 02:53:51;;;;;;;16.38;3.45;;;5.10;99.90;;;;;;5050889;28;20032;-67
2023/12/20 02:56:16;;;;;;;17.40;3.03;;;5.30;99.90;;;;;;5059939;28;20037;-70
2023/12/20 02:58:42;;;;;;;18.13;2.80;;;5.40;99.90;;;;;;5060171;28;20035;-71
2023/12/20 03:01:07;;;;;;;14.50;2.80;;;5.40;99.90;;;;;;5051147;28;20104;-71
2023/12/20 03:03:33;;;;;;;15.50;3.10;;;5.20;99.90;;;;;;5055537;28;20036;-69
2023/12/20 03:05:59;;;;;;;12.68;2.90;;;5.30;99.90;;;;;;5051548;28;20476;-68
2023/12/20 03:08:25;;;;;;;15.30;3.03;;;5.20;99.90;;;;;;5068563;28;20151;-69
2023/12/20 03:10:50;;;;;;;21.92;3.22;;;5.10;99.90;;;;;;5079557;28;20555;-70
2023/12/20 03:13:16;;;;;;;14.02;2.88;;;5.40;99.90;;;;;;5060387;28;20077;-70
2023/12/20 03:15:42;;;;;;;15.93;3.22;;;5.10;99.90;;;;;;5063377;28;20654;-70
2023/12/20 03:18:08;;;;;;;18.80;3.15;;;5.30;99.90;;;;;;5068874;28;20094;-70
2023/12/20 03:20:34;;;;;;;19.45;3.08;;;5.20;99.90;;;;;;5056969;28;20047;-70
2023/12/20 03:23:03;;;;;;;25.67;4.68;;;5.30;99.90;;;;;;5060196;28;20089;-70
2023/12/20 03:25:29;;;;;;;23.83;3.55;;;5.30;99.90;;;;;;5067315;28;20155;-71
2023/12/20 03:27:54;;;;;;;22.73;3.75;;;5.30;99.90;;;;;;5053136;28;20053;-67
2023/12/20 03:30:20;;;;;;;21.25;2.78;;;5.30;99.90;;;;;;5055190;28;20398;-72
2023/12/20 03:32:46;;;;;;;16.70;3.15;;;5.30;99.90;;;;;;5068990;28;20488;-70
2023/12/20 03:35:12;;;;;;;19.73;3.15;;;5.30;99.90;;;;;;5060514;28;20074;-69
2023/12/20 03:37:37;;;;;;;21.60;3.25;;;5.40;99.90;;;;;;5042510;28;20496;-72
2023/12/20 03:40:04;;;;;;;13.82;2.88;;;5.30;99.90;;;;;;5062679;28;20140;-70
2023/12/20 03:42:29;;;;;;;25.40;3.28;;;5.20;99.90;;;;;;5067080;28;20155;-71
2023/12/20 03:44:55;;;;;;;22.17;3.05;;;5.40;99.90;;;;;;5056137;28;20127;-69
2023/12/20 03:47:20;;;;;;;17.50;3.50;;;5.20;99.90;;;;;;5063091;28;20032;-71
2023/12/20 03:49:46;;;;;;;22.00;3.45;;;5.40;99.90;;;;;;5073924;28;20059;-70
2023/12/20 03:52:12;;;;;;;17.40;4.25;;;5.30;99.90;;;;;;5066088;28;20036;-71
2023/12/20 03:54:38;;;;;;;21.90;3.35;;;5.20;99.90;;;;;;5066418;28;20046;-72
2023/12/20 03:57:04;;;;;;;18.73;3.28;;;5.20;99.90;;;;;;5055571;28;20064;-70
2023/12/20 03:59:34;;;;;;;26.13;4.32;;;5.30;99.90;;;;;;5058135;28;20534;-71
2023/12/20 04:02:00;;;;;;;20.48;3.92;;;5.20;99.90;;;;;;5039508;28;20082;-70
2023/12/20 04:04:25;;;;;;;22.63;3.60;;;5.30;99.90;;;;;;5072145;28;20052;-68
2023/12/20 04:06:51;;;;;;;23.55;4.32;;;5.20;99.90;;;;;;5060553;28;20380;-71
2023/12/20 04:09:16;;;;;;;17.67;3.65;;;5.20;99.90;;;;;;5072143;28;20044;-71
2023/12/20 04:11:42;;;;;;;20.73;3.72;;;5.40;99.90;;;;;;5066070;28;20040;-72
2023/12/20 04:14:08;;;;;;;22.95;3.17;;;5.40;99.90;;;;;;5061415;28;20089;-71
2023/12/20 04:16:33;;;;;;;19.05;3.85;;;5.40;99.90;;;;;;5068484;28;20031;-71
2023/12/20 04:18:59;;;;;;;29.88;3.90;;;5.30;99.90;;;;;;5061790;28;20090;-70
2023/12/20 04:21:24;;;;;;;26.48;3.95;;;5.50;99.90;;;;;;5053654;28;20041;-71
2023/12/20 04:23:50;;;;;;;23.40;3.97;;;5.40;99.90;;;;;;5060748;28;20413;-71
2023/12/20 04:26:15;;;;;;;22.63;4.10;;;5.50;99.90;;;;;;5077267;28;20032;-70
2023/12/20 04:28:42;;;;;;;18.77;3.67;;;5.50;99.90;;;;;;5079648;28;20039;-70
2023/12/20 04:31:07;;;;;;;19.55;3.78;;;5.60;99.90;;;;;;5068218;28;20040;-73
2023/12/20 04:33:33;;;;;;;20.80;3.25;;;5.60;99.90;;;;;;5062542;28;20422;-71
2023/12/20 04:35:59;;;;;;;25.27;3.85;;;5.60;99.90;;;;;;5059441;28;20075;-70
2023/12/20 04:38:25;;;;;;;20.88;3.38;;;5.50;99.90;;;;;;5059871;28;20392;-71
2023/12/20 04:40:51;;;;;;;23.33;3.55;;;5.50;99.90;;;;;;5058113;28;20035;-71
2023/12/20 04:43:17;;;;;;;21.17;3.80;;;5.60;99.90;;;;;;5055023;28;20041;-70
2023/12/20 04:45:43;;;;;;;21.08;3.75;;;5.60;99.90;;;;;;5056499;28;20119;-73
2023/12/20 04:48:08;;;;;;;22.15;3.70;;;5.60;99.90;;;;;;5070976;28;20177;-72
2023/12/20 04:50:34;;;;;;;20.83;3.67;;;5.60;99.90;;;;;;5062851;28;20514;-72
2023/12/20 04:53:00;;;;;;;27.70;4.53;;;5.60;99.90;;;;;;5064204;28;20047;-69
2023/12/20 04:55:26;;;;;;;25.52;4.40;;;5.60;99.90;;;;;;5046139;28;20036;-72
2023/12/20 04:57:51;;;;;;;25.05;4.90;;;5.60;99.90;;;;;;5048487;28;20574;-72
2023/12/20 05:00:17;;;;;;;22.55;3.95;;;5.70;99.90;;;;;;5069429;28;20040;-72
2023/12/20 05:02:43;;;;;;;18.02;3.03;;;5.70;99.90;;;;;;5065231;28;21045;-71
2023/12/20 05:05:09;;;;;;;21.55;4.28;;;5.70;99.90;;;;;;5067441;28;20040;-72
2023/12/20 05:07:34;;;;;;;25.55;3.88;;;5.80;99.90;;;;;;5051166;28;20143;-70
2023/12/20 05:10:00;;;;;;;25.40;4.32;;;5.80;99.90;;;;;;5079574;28;20526;-70
2023/12/20 05:12:25;;;;;;;24.20;4.30;;;5.90;99.90;;;;;;5054891;28;20040;-73
2023/12/20 05:14:52;;;;;;;27.38;4.80;;;5.90;99.90;;;;;;5051458;28;20064;-69
2023/12/20 05:17:18;;;;;;;23.33;4.00;;;5.90;99.90;;;;;;5059038;28;20125;-71
2023/12/20 05:19:43;;;;;;;24.17;5.15;;;6.00;99.90;;;;;;5053306;28;20944;-70
2023/12/20 05:22:10;;;;;;;25.00;4.00;;;6.00;99.90;;;;;;5060621;28;20105;-70
2023/12/20 05:24:35;;;;;;;26.30;5.45;;;6.00;99.90;;;;;;5051885;28;20064;-72
2023/12/20 05:27:01;;;;;;;18.50;4.00;;;6.00;99.90;;;;;;5050108;28;20083;-73
2023/12/20 05:29:26;;;;;;;18.65;4.22;;;6.00;99.90;;;;;;5056454;28;20662;-71
2023/12/20 05:31:52;;;;;;;20.27;6.50;;;6.10;99.90;;;;;;5049688;28;20130;-71
2023/12/20 05:34:18;;;;;;;24.30;3.78;;;6.10;99.90;;;;;;5050551;28;20040;-72
2023/12/20 05:36:43;;;;;;;21.25;4.82;;;6.10;99.90;;;;;;5053967;28;20035;-70
2023/12/20 05:39:09;;;;;;;31.02;5.65;;;6.10;99.90;;;;;;5055528;28;20047;-73
2023/12/20 05:41:34;;;;;;;17.02;3.20;;;6.10;99.90;;;;;;5051881;28;20036;-73
2023/12/20 05:44:00;;;;;;;17.55;3.30;;;6.20;99.90;;;;;;5073336;28;20207;-72
2023/12/20 05:46:27;;;;;;;13.43;3.22;;;6.20;99.90;;;;;;5052190;28;20565;-72
2023/12/20 05:48:53;;;;;;;23.38;3.65;;;6.20;99.90;;;;;;5050770;28;20032;-72
2023/12/20 05:51:18;;;;;;;18.20;4.22;;;6.20;99.90;;;;;;5037239;28;20040;-72
2023/12/20 05:53:44;;;;;;;14.98;3.53;;;6.20;99.90;;;;;;5048257;28;20545;-70
2023/12/20 05:56:10;;;;;;;26.77;4.00;;;6.30;99.90;;;;;;5059899;28;20112;-73
2023/12/20 05:58:36;;;;;;;20.55;3.40;;;6.30;99.90;;;;;;5035945;28;20040;-71
2023/12/20 06:01:05;;;;;;;22.92;3.72;;;6.30;99.90;;;;;;5055097;28;20044;-73
2023/12/20 06:03:31;;;;;;;20.35;3.78;;;6.30;99.90;;;;;;5033130;28;20040;-70
2023/12/20 06:05:56;;;;;;;18.65;4.05;;;6.30;99.90;;;;;;5045003;28;20814;-70
2023/12/20 06:08:22;;;;;;;24.27;4.57;;;6.30;99.90;;;;;;5053722;28;20044;-73
2023/12/20 06:10:48;;;;;;;24.30;3.60;;;6.30;99.90;;;;;;5059404;28;20115;-72
2023/12/20 06:13:14;;;;;;;21.70;4.22;;;6.30;99.90;;;;;;5058234;28;20054;-71
2023/12/20 06:15:40;;;;;;;26.25;4.00;;;6.30;99.90;;;;;;5054056;28;20028;-72
2023/12/20 06:18:06;;;;;;;22.33;2.97;;;6.30;99.90;;;;;;5055411;28;20154;-75
2023/12/20 06:20:32;;;;;;;24.48;3.60;;;6.40;99.90;;;;;;5045140;28;20380;-73
2023/12/20 06:22:58;;;;;;;20.52;3.20;;;6.40;99.90;;;;;;5053592;28;20059;-73
2023/12/20 06:25:24;;;;;;;16.77;3.10;;;6.40;99.90;;;;;;5076954;28;20044;-72
2023/12/20 06:27:49;;;;;;;23.58;3.58;;;6.40;99.90;;;;;;5039645;28;20524;-72
2023/12/20 06:30:16;;;;;;;20.33;3.60;;;6.40;99.90;;;;;;5063614;28;20063;-69
2023/12/20 06:32:42;;;;;;;20.98;3.55;;;6.40;99.90;;;;;;5064071;28;20043;-70
2023/12/20 06:35:09;;;;;;;13.68;3.00;;;6.40;99.90;;;;;;5038634;28;20110;-72
2023/12/20 06:37:35;;;;;;;22.83;4.25;;;6.50;94.10;;;;;;5044330;28;20282;-71
2023/12/20 06:40:00;;;;;;;27.58;3.47;;;6.40;99.90;;;;;;5045674;28;20036;-72
2023/12/20 06:42:26;;;;;;;20.38;3.50;;;6.40;99.90;;;;;;5060261;28;20135;-73
2023/12/20 06:44:52;;;;;;;18.98;3.22;;;6.40;95.70;;;;;;5070846;28;20105;-72
2023/12/20 06:47:18;;;;;;;21.27;3.03;;;6.40;99.90;;;;;;5060275;28;20481;-72
2023/12/20 06:49:43;;;;;;;20.65;4.28;;;6.40;99.90;;;;;;5071093;28;20033;-71
2023/12/20 06:52:09;;;;;;;19.73;3.25;;;6.40;99.90;;;;;;5066828;28;20068;-72
2023/12/20 06:54:35;;;;;;;21.13;3.35;;;6.40;99.90;;;;;;5056879;28;20040;-72
2023/12/20 06:57:02;;;;;;;23.05;3.70;;;6.40;99.90;;;;;;5062157;28;20036;-71
2023/12/20 06:59:28;;;;;;;22.65;3.88;;;6.40;99.90;;;;;;5041066;28;20034;-73
2023/12/20 07:01:54;;;;;;;25.30;4.03;;;6.40;99.90;;;;;;5038962;28;20059;-72
2023/12/20 07:04:21;;;;;;;22.65;4.00;;;6.40;99.90;;;;;;5056928;28;20066;-71
2023/12/20 07:06:48;;;;;;;22.23;4.22;;;6.40;99.90;;;;;;5035280;28;20381;-70
2023/12/20 07:09:13;;;;;;;16.30;3.42;;;6.40;99.90;;;;;;5072995;28;20032;-72
2023/12/20 07:11:39;;;;;;;15.73;3.30;;;6.50;99.90;;;;;;5063620;28;20452;-73
2023/12/20 07:14:05;;;;;;;22.48;3.97;;;6.50;99.90;;;;;;5058292;28;20043;-65
2023/12/20 07:16:31;;;;;;;25.25;3.80;;;6.40;47.20;;;;;;5055863;28;20037;-70
2023/12/20 07:18:57;;;;;;;15.55;3.17;;;6.50;11.90;;;;;;5059923;28;20072;-72
2023/12/20 07:21:23;;;;;;;28.23;4.18;;;6.50;16.10;;;;;;5055258;28;20083;-69
2023/12/20 07:23:48;;;;;;;21.48;3.47;;;6.50;74.20;;;;;;5058718;28;20066;-72
2023/12/20 07:26:15;;;;;;;22.95;3.35;;;6.40;99.90;;;;;;5055223;28;20518;-72
2023/12/20 07:28:40;;;;;;;25.45;3.53;;;6.50;99.90;;;;;;5051657;28;20114;-72
2023/12/20 07:31:06;;;;;;;18.63;4.38;;;6.50;99.90;;;;;;5061337;28;20138;-72
2023/12/20 07:33:32;;;;;;;20.10;3.67;;;6.50;99.90;;;;;;5045300;28;20059;-70
2023/12/20 07:35:59;;;;;;;22.40;3.75;;;6.50;99.90;;;;;;5054697;28;20499;-74
2023/12/20 07:38:24;;;;;;;22.42;3.65;;;6.50;99.90;;;;;;5048770;28;20124;-74
2023/12/20 07:40:50;;;;;;;26.58;4.00;;;6.50;99.90;;;;;;5039605;28;20115;-74
2023/12/20 07:43:16;;;;;;;18.00;3.80;;;6.50;99.90;;;;;;5059683;28;20046;-72
2023/12/20 07:45:42;;;;;;;20.27;3.63;;;6.50;99.90;;;;;;5073070;28;20036;-74
2023/12/20 07:48:08;;;;;;;25.13;3.55;;;6.50;99.90;;;;;;5050117;28;20044;-74
2023/12/20 07:50:34;;;;;;;22.58;3.83;;;6.50;99.90;;;;;;5050578;28;20040;-73
2023/12/20 07:53:00;;;;;;;25.70;4.32;;;6.50;55.00;;;;;;5069762;28;20405;-73
2023/12/20 07:55:26;;;;;;;22.33;4.10;;;6.50;33.70;;;;;;5050117;28;20058;-74
2023/12/20 07:57:52;;;;;;;24.08;4.22;;;6.50;38.50;;;;;;5059450;28;20131;-74
2023/12/20 08:00:19;;;;;;;26.67;4.15;;;6.60;1.00;;;;;;5054425;28;20131;-74
2023/12/20 08:02:45;;;;;;;29.83;4.32;;;6.60;1.00;;;;;;5066942;28;20043;-72
2023/12/20 08:05:10;;;;;;;19.52;3.28;;;6.60;1.00;;;;;;5054792;28;20387;-69
2023/12/20 08:07:36;;;;;;;17.23;3.45;;;6.60;99.90;;;;;;5056960;28;20036;-74
2023/12/20 08:10:02;;;;;;;20.10;3.38;;;6.70;1.00;;;;;;5063603;28;20045;-74
2023/12/20 08:12:27;;;;;;;25.58;4.32;;;6.70;1.00;;;;;;5044784;28;20447;-75
2023/12/20 08:14:54;;;;;;;26.25;3.78;;;6.70;1.00;;;;;;5062657;28;20040;-73
2023/12/20 08:17:19;;;;;;;17.77;4.00;;;6.80;1.00;;;;;;5041929;28;20118;-71
2023/12/20 08:19:45;;;;;;;23.77;4.10;;;6.80;1.00;;;;;;5057032;28;20131;-75
2023/12/20 08:22:11;;;;;;;19.58;3.25;;;6.80;1.00;;;;;;5059887;28;20459;-73
2023/12/20 08:24:37;;;;;;;21.98;3.40;;;6.90;99.90;;;;;;5066528;28;20464;-74
2023/12/20 08:27:04;;;;;;;22.65;3.92;;;6.80;1.00;;;;;;5070485;28;20046;-74
2023/12/20 08:29:29;;;;;;;20.25;3.80;;;6.80;99.90;;;;;;5060052;28;20043;-74
2023/12/20 08:31:56;;;;;;;16.05;3.28;;;6.80;1.00;;;;;;5064416;28;20052;-75
2023/12/20 08:34:22;;;;;;;19.50;3.80;;;6.90;1.00;;;;;;5070715;28;20033;-73
2023/12/20 08:36:47;;;;;;;25.08;5.75;;;6.90;99.90;;;;;;5032014;28;20173;-71
2023/12/20 08:39:13;;;;;;;18.75;3.58;;;7.00;99.90;;;;;;5062935;28;20512;-72
2023/12/20 08:41:39;;;;;;;22.83;3.40;;;7.00;99.90;;;;;;5045887;28;20181;-70
2023/12/20 08:44:04;;;;;;;20.85;4.10;;;7.10;99.90;;;;;;5048386;28;20032;-77
2023/12/20 08:46:30;;;;;;;23.58;3.15;;;7.10;99.90;;;;;;5067021;28;20078;-73
2023/12/20 08:48:56;;;;;;;13.93;2.85;;;7.00;99.90;;;;;;5078096;28;20040;-69
2023/12/20 08:51:23;;;;;;;16.80;3.42;;;6.90;99.90;;;;;;5062882;28;20040;-72
2023/12/20 08:53:49;;;;;;;10.38;2.33;;;6.80;1.00;;;;;;5065443;28;20044;-69
2023/12/20 08:56:15;;;;;;;14.27;2.45;;;6.70;1.00;;;;;;5057738;28;20485;-79
2023/12/20 08:58:41;;;;;;;10.50;2.67;;;6.50;1.00;;;;;;5063838;28;20028;-79
2023/12/20 09:01:07;;;;;;;13.88;2.35;;;6.50;1.00;;;;;;5052004;28;20095;-73
2023/12/20 09:03:33;;;;;;;24.33;6.28;;;6.40;1.00;;;;;;5050263;28;20038;-80
2023/12/20 09:05:58;;;;;;;12.93;2.20;;;6.30;1.00;;;;;;5055677;28;20474;-74
2023/12/20 09:08:24;;;;;;;13.07;2.20;;;6.30;1.00;;;;;;5048817;28;20039;-74
2023/12/20 09:10:50;;;;;;;13.05;2.63;;;6.30;10.20;;;;;;5066273;28;20040;-75
2023/12/20 09:13:16;;;;;;;15.20;3.10;;;6.30;70.80;;;;;;5073871;28;20040;-71
2023/12/20 09:15:41;;;;;;;15.75;3.20;;;6.40;94.20;;;;;;5047954;28;20460;-76
2023/12/20 09:18:07;;;;;;;23.77;5.40;;;6.40;99.90;;;;;;5056129;28;20141;-71
2023/12/20 09:20:34;;;;;;;24.23;3.92;;;6.40;99.90;;;;;;5063452;28;20046;-74
2023/12/20 09:22:59;;;;;;;13.73;3.30;;;6.50;99.90;;;;;;5045594;28;20097;-72
2023/12/20 09:25:25;;;;;;;21.70;3.20;;;6.60;94.20;;;;;;5055146;28;20036;-77
2023/12/20 09:27:52;;;;;;;22.52;3.28;;;6.60;39.60;;;;;;5064634;28;20032;-74
2023/12/20 09:30:19;;;;;;;21.10;4.05;;;6.70;1.00;;;;;;5070753;28;20384;-74
2023/12/20 09:32:45;;;;;;;24.45;4.38;;;6.80;3.10;;;;;;5063201;28;20048;-69
2023/12/20 09:35:11;;;;;;;20.25;3.25;;;7.00;55.70;;;;;;5067986;28;20090;-73
2023/12/20 09:37:37;;;;;;;13.40;1.83;;;6.90;90.40;;;;;;5067009;28;20063;-70
2023/12/20 09:40:03;;;;;;;11.68;1.20;;;6.60;99.50;;;;;;5065137;28;21578;-70
2023/12/20 09:42:59;;;;;;;5.18;1.10;;;6.40;99.90;;;;;;5056940;28;20395;-69
2023/12/20 09:45:24;;;;;;;9.18;1.30;;;6.30;99.90;;;;;;5082552;28;20111;-72
2023/12/20 09:47:52;;;;;;;5.30;0.93;;;5.70;99.90;;;;;;5070322;28;20040;-72
2023/12/20 09:50:20;;;;;;;8.65;1.30;;;6.00;99.90;;;;;;5079634;28;20054;-70
2023/12/20 09:52:49;;;;;;;6.85;1.42;;;5.60;99.90;;;;;;5065482;28;20059;-70
2023/12/20 09:55:16;;;;;;;5.57;1.20;;;6.00;99.90;;;;;;5057051;28;20476;-70
2023/12/20 09:57:42;;;;;;;4.88;1.15;;;5.90;99.90;;;;;;5073629;28;20036;-71
2023/12/20 10:00:08;;;;;;;6.22;0.98;;;5.70;99.90;;;;;;5079257;28;20564;-71
2023/12/20 10:02:38;;;;;;;5.95;1.13;;;5.60;99.90;;;;;;5068056;28;20040;-72
2023/12/20 10:05:08;;;;;;;3.53;0.80;;;5.70;99.90;;;;;;5051944;28;20101;-71
2023/12/20 10:07:35;;;;;;;6.68;1.70;;;5.80;99.90;;;;;;5060513;28;20045;-70
2023/12/20 10:10:02;;;;;;;9.82;1.33;;;5.50;99.90;;;;;;5061204;28;20042;-70
2023/12/20 10:12:28;;;;;;;12.05;1.48;;;5.50;99.90;;;;;;5065973;28;20085;-71
2023/12/20 10:14:53;;;;;;;4.93;0.82;;;5.70;99.90;;;;;;5068179;28;20039;-71
2023/12/20 10:17:21;;;;;;;5.53;1.20;;;5.70;99.90;;;;;;5058626;28;20127;-71
2023/12/20 10:19:47;;;;;;;9.30;1.10;;;5.50;99.90;;;;;;5054070;28;20039;-71
2023/12/20 10:22:12;;;;;;;10.57;1.58;;;5.50;99.90;;;;;;5058146;28;20048;-70
2023/12/20 10:24:39;;;;;;;6.88;1.05;;;5.40;99.90;;;;;;5037407;28;20098;-70
2023/12/20 10:27:06;;;;;;;10.68;1.40;;;5.40;99.90;;;;;;5061565;28;20082;-72
2023/12/20 10:29:33;;;;;;;9.48;1.45;;;5.60;99.90;;;;;;5044722;28;21115;-71
2023/12/20 10:31:59;;;;;;;8.25;1.33;;;5.60;99.90;;;;;;5058573;28;20377;-71
2023/12/20 10:34:24;;;;;;;9.40;1.10;;;5.40;99.90;;;;;;5057260;28;20036;-71
2023/12/20 10:36:51;;;;;;;5.68;1.05;;;5.40;99.90;;;;;;5051360;28;20040;-71
2023/12/20 10:39:20;;;;;;;7.63;1.13;;;5.30;99.90;;;;;;5059359;28;20135;-70
2023/12/20 10:41:46;;;;;;;7.57;1.45;;;5.50;99.90;;;;;;5054125;28;20036;-71
2023/12/20 10:44:13;;;;;;;6.18;1.00;;;5.40;99.90;;;;;;5059428;28;20071;-71
2023/12/20 10:46:40;;;;;;;4.18;1.10;;;5.10;99.90;;;;;;5060617;28;20456;-70
2023/12/20 10:49:08;;;;;;;7.85;1.20;;;5.10;99.90;;;;;;5037128;28;20036;-71
2023/12/20 10:51:34;;;;;;;5.15;1.10;;;5.30;99.90;;;;;;5057895;28;20136;-71
2023/12/20 10:54:01;;;;;;;9.18;1.42;;;5.30;99.90;;;;;;5057435;28;20060;-71
2023/12/20 10:56:32;;;;;;;9.77;1.27;;;5.20;99.90;;;;;;5047211;28;20040;-70
2023/12/20 10:59:05;;;;;;;11.07;1.38;;;5.20;99.90;;;;;;5086103;28;20119;-70
2023/12/20 11:01:31;;;;;;;10.05;1.70;;;5.10;99.90;;;;;;5063975;28;20089;-71
2023/12/20 11:03:58;;;;;;;9.18;1.30;;;5.30;99.90;;;;;;5063308;28;20043;-72
2023/12/20 11:06:45;;;;;;;10.48;1.40;;;5.40;99.90;;;;;;5060022;28;20400;-71
2023/12/20 11:09:33;;;;;;;5.47;1.35;;;5.50;99.90;;;;;;5068649;28;20039;-70
2023/12/20 11:12:09;;;;;;;5.78;1.23;;;5.50;99.90;;;;;;5044554;28;20048;-71
2023/12/20 11:14:47;;;;;;;9.25;3.17;;;5.60;99.90;;;;;;5070965;28;20399;-71
2023/12/20 11:17:15;;;;;;;5.30;1.83;;;5.70;99.90;;;;;;5058464;28;20389;-71
2023/12/20 11:19:56;;;;;;;9.43;1.90;;;5.80;99.90;;;;;;5070445;28;20089;-70
2023/12/20 11:22:25;;;;;;;4.90;1.10;;;5.80;99.90;;;;;;5067544;28;20055;-71
2023/12/20 11:24:52;;;;;;;8.98;1.60;;;5.70;99.90;;;;;;5064238;28;20453;-70
2023/12/20 11:27:19;;;;;;;10.27;1.30;;;5.80;99.90;;;;;;5072370;28;20078;-71
2023/12/20 11:29:53;;;;;;;9.13;1.65;;;5.90;99.90;;;;;;5059361;28;20056;-71
2023/12/20 11:32:28;;;;;;;4.85;1.20;;;6.00;99.90;;;;;;5063068;28;20048;-70
2023/12/20 11:35:00;;;;;;;6.63;1.70;;;6.00;99.90;;;;;;5064320;28;20043;-70
2023/12/20 11:37:31;;;;;;;6.65;2.22;;;6.10;99.90;;;;;;5073647;28;20585;-72
2023/12/20 11:40:09;;;;;;;8.82;1.45;;;6.10;99.90;;;;;;5067615;28;20074;-72
2023/12/20 11:42:43;;;;;;;12.15;2.00;;;6.10;99.90;;;;;;5040874;28;20042;-71
2023/12/20 11:45:17;;;;;;;12.02;1.40;;;6.10;99.90;;;;;;5069067;28;20036;-71
2023/12/20 11:47:45;;;;;;;7.72;1.42;;;6.20;99.90;;;;;;5065587;28;20068;-69
2023/12/20 11:50:11;;;;;;;7.78;1.55;;;6.20;99.90;;;;;;5056112;28;20032;-71
2023/12/20 11:52:37;;;;;;;11.63;1.95;;;6.30;82.40;;;;;;5045614;28;20039;-72
2023/12/20 11:55:03;;;;;;;14.27;1.88;;;6.20;67.90;;;;;;5059964;28;20034;-73
2023/12/20 11:57:30;;;;;;;11.68;1.70;;;6.20;26.40;;;;;;5064898;28;20396;-72
2023/12/20 11:59:56;;;;;;;8.77;1.25;;;6.20;1.00;;;;;;5062150;28;20066;-73
2023/12/20 12:02:21;;;;;;;7.47;1.42;;;6.20;1.00;;;;;;5038692;28;20429;-73
2023/12/20 12:04:49;;;;;;;7.35;1.63;;;6.00;1.00;;;;;;5056948;28;20135;-75
2023/12/20 12:07:14;;;;;;;10.90;1.50;;;6.10;12.70;;;;;;5051625;28;20036;-73
2023/12/20 12:09:40;;;;;;;10.48;1.77;;;6.00;1.00;;;;;;5054220;28;20056;-74
2023/12/20 12:12:06;;;;;;;9.60;1.65;;;6.10;1.00;;;;;;5039986;28;20043;-73
2023/12/20 12:14:32;;;;;;;10.80;1.92;;;6.10;5.30;;;;;;5056809;28;20035;-74
2023/12/20 12:16:58;;;;;;;8.95;1.63;;;6.10;3.50;;;;;;5038376;28;20036;-72
2023/12/20 12:19:25;;;;;;;10.90;2.03;;;6.20;1.00;;;;;;5036901;28;20037;-72
2023/12/20 12:22:13;;;;;;;13.23;2.20;;;6.20;1.00;;;;;;5057541;28;20032;-74
2023/12/20 12:24:44;;;;;;;4.30;1.25;;;6.20;1.00;;;;;;5047369;28;20037;-74
2023/12/20 12:27:10;;;;;;;10.25;1.67;;;6.30;1.00;;;;;;5051718;28;20551;-75
2023/12/20 12:29:36;;;;;;;9.80;2.03;;;6.30;1.00;;;;;;5046878;28;20113;-73
2023/12/20 12:32:06;;;;;;;14.50;1.55;;;6.40;1.00;;;;;;5078804;28;20536;-73
2023/12/20 12:34:33;;;;;;;9.15;2.00;;;6.40;1.00;;;;;;5075040;28;20025;-74
2023/12/20 12:36:59;;;;;;;10.98;1.65;;;6.40;1.00;;;;;;5069861;28;20036;-73
2023/12/20 12:39:27;;;;;;;9.55;1.80;;;6.40;1.00;;;;;;5066890;28;20036;-74
2023/12/20 12:41:53;;;;;;;12.68;1.92;;;6.40;99.90;;;;;;5050614;28;20040;-77
2023/12/20 12:44:19;;;;;;;10.48;2.00;;;6.30;99.90;;;;;;5054635;28;20048;-76
2023/12/20 12:46:53;;;;;;;10.57;1.83;;;6.40;99.90;;;;;;5053292;28;20036;-76